Tatamagouche, Canada
Current Conditions -  °F | °C
As of 5:00 AM on Tuesday 21 Oct 2014 (Local Time) from CYYG Reporting Station
Clear Clear  
Wind Chill: 32°   Ceiling: Unl
Heat Index: 37°   Visibility: 15mi
Dew Point: 32°   Wind: 7mph
Humidity: 81%   Direction: 230°SW
Pressure: 29.99"   Gusts: NA
Location:  45.72°N, 63.28°W
Report Text: CYYG 210800Z 23006KT 15SM SKC 03/00 A2999 RMK SLP158
Loading
Personal Weather Stations






























Interactive Weather Map
Tropical Storm Tracking
New forecast layout! Learn more

10-Day Weather Forecast

Advertisements
Track Severe Weather on mobile